sensor_id;sensor_type;location;lat;lon;timestamp;temperature;humidity
71208;DHT22;58938;49.868;8.646;2022-09-09T00:00:20;21.60;52.40
71208;DHT22;58938;49.868;8.646;2022-09-09T00:03:02;21.60;52.40
71208;DHT22;58938;49.868;8.646;2022-09-09T00:08:22;21.60;52.50
71208;DHT22;58938;49.868;8.646;2022-09-09T00:10:59;21.60;52.50
71208;DHT22;58938;49.868;8.646;2022-09-09T00:13:45;21.60;52.60
71208;DHT22;58938;49.868;8.646;2022-09-09T00:16:16;21.60;52.60
71208;DHT22;58938;49.868;8.646;2022-09-09T00:21:38;21.60;52.70
71208;DHT22;58938;49.868;8.646;2022-09-09T00:24:24;21.50;52.80
71208;DHT22;58938;49.868;8.646;2022-09-09T00:26:56;21.50;52.90
71208;DHT22;58938;49.868;8.646;2022-09-09T00:29:43;21.50;53.00
71208;DHT22;58938;49.868;8.646;2022-09-09T00:32:18;21.50;53.00
71208;DHT22;58938;49.868;8.646;2022-09-09T00:35:04;21.50;53.00
71208;DHT22;58938;49.868;8.646;2022-09-09T00:37:38;21.50;53.00
71208;DHT22;58938;49.868;8.646;2022-09-09T00:43:09;21.50;53.10
71208;DHT22;58938;49.868;8.646;2022-09-09T00:51:17;21.50;53.20
71208;DHT22;58938;49.868;8.646;2022-09-09T00:54:33;21.50;53.20
71208;DHT22;58938;49.868;8.646;2022-09-09T00:57:22;21.50;53.10
71208;DHT22;58938;49.868;8.646;2022-09-09T00:59:54;21.50;53.10
71208;DHT22;58938;49.868;8.646;2022-09-09T01:02:36;21.50;53.20
71208;DHT22;58938;49.868;8.646;2022-09-09T01:05:11;21.50;53.30
71208;DHT22;58938;49.868;8.646;2022-09-09T01:07:38;21.50;53.20
71208;DHT22;58938;49.868;8.646;2022-09-09T01:10:31;21.40;53.30
71208;DHT22;58938;49.868;8.646;2022-09-09T01:13:04;21.40;53.30
71208;DHT22;58938;49.868;8.646;2022-09-09T01:15:32;21.40;53.40
71208;DHT22;58938;49.868;8.646;2022-09-09T01:18:13;21.40;53.40
71208;DHT22;58938;49.868;8.646;2022-09-09T01:23:32;21.40;53.50
71208;DHT22;58938;49.868;8.646;2022-09-09T01:28:40;21.40;53.50
71208;DHT22;58938;49.868;8.646;2022-09-09T01:31:09;21.40;53.60
71208;DHT22;58938;49.868;8.646;2022-09-09T01:33:36;21.40;53.50
71208;DHT22;58938;49.868;8.646;2022-09-09T01:36:10;21.40;53.60
71208;DHT22;58938;49.868;8.646;2022-09-09T01:38:37;21.40;53.60
71208;DHT22;58938;49.868;8.646;2022-09-09T01:41:04;21.40;53.70
71208;DHT22;58938;49.868;8.646;2022-09-09T01:43:30;21.40;53.70
71208;DHT22;58938;49.868;8.646;2022-09-09T01:45:58;21.40;53.80
71208;DHT22;58938;49.868;8.646;2022-09-09T01:48:25;21.40;53.80
71208;DHT22;58938;49.868;8.646;2022-09-09T01:50:51;21.30;53.90
71208;DHT22;58938;49.868;8.646;2022-09-09T01:53:18;21.30;53.90
71208;DHT22;58938;49.868;8.646;2022-09-09T01:56:07;21.40;54.00
71208;DHT22;58938;49.868;8.646;2022-09-09T02:02:02;21.30;54.10
71208;DHT22;58938;49.868;8.646;2022-09-09T02:05:07;21.30;54.10
71208;DHT22;58938;49.868;8.646;2022-09-09T02:07:42;21.30;54.20
71208;DHT22;58938;49.868;8.646;2022-09-09T02:12:43;21.20;54.30
71208;DHT22;58938;49.868;8.646;2022-09-09T02:15:36;21.20;54.40
71208;DHT22;58938;49.868;8.646;2022-09-09T02:18:06;21.20;54.40
71208;DHT22;58938;49.868;8.646;2022-09-09T02:20:36;21.20;54.50
71208;DHT22;58938;49.868;8.646;2022-09-09T02:23:05;21.20;54.60
71208;DHT22;58938;49.868;8.646;2022-09-09T02:25:33;21.20;54.60
71208;DHT22;58938;49.868;8.646;2022-09-09T02:27:59;21.20;54.60
71208;DHT22;58938;49.868;8.646;2022-09-09T02:30:28;21.10;54.70
71208;DHT22;58938;49.868;8.646;2022-09-09T02:32:56;21.10;54.70
71208;DHT22;58938;49.868;8.646;2022-09-09T02:35:24;21.10;54.80
71208;DHT22;58938;49.868;8.646;2022-09-09T02:37:53;21.10;54.90
71208;DHT22;58938;49.868;8.646;2022-09-09T02:40:21;21.10;54.90
71208;DHT22;58938;49.868;8.646;2022-09-09T02:42:48;21.10;55.00
71208;DHT22;58938;49.868;8.646;2022-09-09T02:45:21;21.10;55.00
71208;DHT22;58938;49.868;8.646;2022-09-09T02:47:51;21.10;55.10
71208;DHT22;58938;49.868;8.646;2022-09-09T02:50:35;21.00;55.20
71208;DHT22;58938;49.868;8.646;2022-09-09T02:53:22;21.00;55.20
71208;DHT22;58938;49.868;8.646;2022-09-09T02:56:04;21.00;55.30
71208;DHT22;58938;49.868;8.646;2022-09-09T02:58:30;21.00;55.30
71208;DHT22;58938;49.868;8.646;2022-09-09T03:00:57;21.00;55.40
71208;DHT22;58938;49.868;8.646;2022-09-09T03:03:23;21.00;55.40
71208;DHT22;58938;49.868;8.646;2022-09-09T03:05:49;21.00;55.40
71208;DHT22;58938;49.868;8.646;2022-09-09T03:08:15;21.00;55.50
71208;DHT22;58938;49.868;8.646;2022-09-09T03:10:41;21.00;55.50
71208;DHT22;58938;49.868;8.646;2022-09-09T03:13:06;21.00;55.60
71208;DHT22;58938;49.868;8.646;2022-09-09T03:15:33;21.00;55.70
71208;DHT22;58938;49.868;8.646;2022-09-09T03:17:59;21.00;55.70
71208;DHT22;58938;49.868;8.646;2022-09-09T03:20:26;21.00;55.70
71208;DHT22;58938;49.868;8.646;2022-09-09T03:22:53;21.00;55.80
71208;DHT22;58938;49.868;8.646;2022-09-09T03:25:19;21.00;55.80
71208;DHT22;58938;49.868;8.646;2022-09-09T03:27:45;21.00;55.80
71208;DHT22;58938;49.868;8.646;2022-09-09T03:30:10;21.00;55.80
71208;DHT22;58938;49.868;8.646;2022-09-09T03:32:36;21.00;55.90
71208;DHT22;58938;49.868;8.646;2022-09-09T03:35:02;20.90;56.00
71208;DHT22;58938;49.868;8.646;2022-09-09T03:37:28;20.90;56.00
71208;DHT22;58938;49.868;8.646;2022-09-09T03:39:54;20.90;56.10
71208;DHT22;58938;49.868;8.646;2022-09-09T03:42:20;20.90;56.10
71208;DHT22;58938;49.868;8.646;2022-09-09T03:44:46;20.90;56.10
71208;DHT22;58938;49.868;8.646;2022-09-09T03:47:18;20.90;56.20
71208;DHT22;58938;49.868;8.646;2022-09-09T03:49:45;20.90;56.20
71208;DHT22;58938;49.868;8.646;2022-09-09T03:52:11;20.90;56.60
71208;DHT22;58938;49.868;8.646;2022-09-09T03:54:36;20.80;56.70
71208;DHT22;58938;49.868;8.646;2022-09-09T03:57:03;20.80;57.20
71208;DHT22;58938;49.868;8.646;2022-09-09T03:59:28;20.80;57.20
71208;DHT22;58938;49.868;8.646;2022-09-09T04:01:54;20.80;57.60
71208;DHT22;58938;49.868;8.646;2022-09-09T04:04:20;20.80;57.50
71208;DHT22;58938;49.868;8.646;2022-09-09T04:06:46;20.80;57.50
71208;DHT22;58938;49.868;8.646;2022-09-09T04:09:14;20.80;57.80
71208;DHT22;58938;49.868;8.646;2022-09-09T04:11:39;20.80;57.90
71208;DHT22;58938;49.868;8.646;2022-09-09T04:14:05;20.80;58.00
71208;DHT22;58938;49.868;8.646;2022-09-09T04:16:32;20.70;58.10
71208;DHT22;58938;49.868;8.646;2022-09-09T04:18:58;20.70;58.10
71208;DHT22;58938;49.868;8.646;2022-09-09T04:21:25;20.70;58.20
71208;DHT22;58938;49.868;8.646;2022-09-09T04:23:50;20.70;58.20
71208;DHT22;58938;49.868;8.646;2022-09-09T04:26:16;20.70;58.20
71208;DHT22;58938;49.868;8.646;2022-09-09T04:28:42;20.70;58.30
71208;DHT22;58938;49.868;8.646;2022-09-09T04:31:15;20.70;58.30
71208;DHT22;58938;49.868;8.646;2022-09-09T04:33:43;20.70;58.30
71208;DHT22;58938;49.868;8.646;2022-09-09T04:36:08;20.70;58.30
71208;DHT22;58938;49.868;8.646;2022-09-09T04:38:34;20.70;58.30
71208;DHT22;58938;49.868;8.646;2022-09-09T04:41:00;20.70;58.30
71208;DHT22;58938;49.868;8.646;2022-09-09T04:43:26;20.70;58.30
71208;DHT22;58938;49.868;8.646;2022-09-09T04:45:52;20.60;58.40
71208;DHT22;58938;49.868;8.646;2022-09-09T04:48:18;20.60;58.40
71208;DHT22;58938;49.868;8.646;2022-09-09T04:50:57;20.60;58.40
71208;DHT22;58938;49.868;8.646;2022-09-09T04:53:23;20.60;58.40
71208;DHT22;58938;49.868;8.646;2022-09-09T04:55:48;20.60;58.40
71208;DHT22;58938;49.868;8.646;2022-09-09T04:58:14;20.60;58.50
71208;DHT22;58938;49.868;8.646;2022-09-09T05:00:40;20.50;58.50
71208;DHT22;58938;49.868;8.646;2022-09-09T05:03:06;20.50;58.50
71208;DHT22;58938;49.868;8.646;2022-09-09T05:05:34;20.50;58.60
71208;DHT22;58938;49.868;8.646;2022-09-09T05:08:04;20.50;58.60
71208;DHT22;58938;49.868;8.646;2022-09-09T05:10:31;20.50;58.60
71208;DHT22;58938;49.868;8.646;2022-09-09T05:12:56;20.50;58.50
71208;DHT22;58938;49.868;8.646;2022-09-09T05:15:22;20.50;58.60
71208;DHT22;58938;49.868;8.646;2022-09-09T05:17:48;20.50;58.50
71208;DHT22;58938;49.868;8.646;2022-09-09T05:20:13;20.50;58.60
71208;DHT22;58938;49.868;8.646;2022-09-09T05:22:39;20.40;58.50
71208;DHT22;58938;49.868;8.646;2022-09-09T05:25:06;20.40;58.50
71208;DHT22;58938;49.868;8.646;2022-09-09T05:27:34;20.40;58.50
71208;DHT22;58938;49.868;8.646;2022-09-09T05:29:59;20.40;58.60
71208;DHT22;58938;49.868;8.646;2022-09-09T05:32:25;20.40;58.60
71208;DHT22;58938;49.868;8.646;2022-09-09T05:34:51;20.40;58.60
71208;DHT22;58938;49.868;8.646;2022-09-09T05:37:18;20.40;58.60
71208;DHT22;58938;49.868;8.646;2022-09-09T05:39:43;20.40;58.60
71208;DHT22;58938;49.868;8.646;2022-09-09T05:42:09;20.40;58.70
71208;DHT22;58938;49.868;8.646;2022-09-09T05:44:34;20.40;58.70
71208;DHT22;58938;49.868;8.646;2022-09-09T05:47:00;20.40;58.70
71208;DHT22;58938;49.868;8.646;2022-09-09T05:49:25;20.40;58.70
71208;DHT22;58938;49.868;8.646;2022-09-09T05:51:51;20.40;58.80
71208;DHT22;58938;49.868;8.646;2022-09-09T05:54:17;20.40;58.90
71208;DHT22;58938;49.868;8.646;2022-09-09T05:56:43;20.30;58.90
71208;DHT22;58938;49.868;8.646;2022-09-09T05:59:08;20.30;59.00
71208;DHT22;58938;49.868;8.646;2022-09-09T06:01:36;20.30;59.10
71208;DHT22;58938;49.868;8.646;2022-09-09T06:04:06;20.30;59.10
71208;DHT22;58938;49.868;8.646;2022-09-09T06:06:33;20.30;59.10
71208;DHT22;58938;49.868;8.646;2022-09-09T06:09:04;20.30;59.30
71208;DHT22;58938;49.868;8.646;2022-09-09T06:11:32;20.30;59.20
71208;DHT22;58938;49.868;8.646;2022-09-09T06:14:01;20.30;59.30
71208;DHT22;58938;49.868;8.646;2022-09-09T06:16:28;20.30;59.30
71208;DHT22;58938;49.868;8.646;2022-09-09T06:18:55;20.30;59.30
71208;DHT22;58938;49.868;8.646;2022-09-09T06:21:29;20.30;59.40
71208;DHT22;58938;49.868;8.646;2022-09-09T06:23:55;20.30;59.40
71208;DHT22;58938;49.868;8.646;2022-09-09T06:26:25;20.30;59.50
71208;DHT22;58938;49.868;8.646;2022-09-09T06:28:52;20.30;59.50
71208;DHT22;58938;49.868;8.646;2022-09-09T06:31:20;20.30;59.60
71208;DHT22;58938;49.868;8.646;2022-09-09T06:33:50;20.30;59.60
71208;DHT22;58938;49.868;8.646;2022-09-09T06:36:22;20.30;59.60
71208;DHT22;58938;49.868;8.646;2022-09-09T06:38:48;20.40;59.60
71208;DHT22;58938;49.868;8.646;2022-09-09T06:41:16;20.40;59.60
71208;DHT22;58938;49.868;8.646;2022-09-09T06:43:42;20.40;59.60
71208;DHT22;58938;49.868;8.646;2022-09-09T06:46:19;20.40;59.70
71208;DHT22;58938;49.868;8.646;2022-09-09T06:48:45;20.40;59.60
71208;DHT22;58938;49.868;8.646;2022-09-09T06:51:22;20.40;59.70
71208;DHT22;58938;49.868;8.646;2022-09-09T06:53:50;20.40;59.80
71208;DHT22;58938;49.868;8.646;2022-09-09T06:58:42;20.40;59.80
71208;DHT22;58938;49.868;8.646;2022-09-09T07:01:11;20.40;59.80
71208;DHT22;58938;49.868;8.646;2022-09-09T07:03:38;20.40;59.80
71208;DHT22;58938;49.868;8.646;2022-09-09T07:06:04;20.40;59.90
71208;DHT22;58938;49.868;8.646;2022-09-09T07:08:30;20.40;59.80
71208;DHT22;58938;49.868;8.646;2022-09-09T07:11:05;20.40;59.90
71208;DHT22;58938;49.868;8.646;2022-09-09T07:13:31;20.40;60.00
71208;DHT22;58938;49.868;8.646;2022-09-09T07:16:08;20.40;60.00
71208;DHT22;58938;49.868;8.646;2022-09-09T07:18:34;20.40;60.00
71208;DHT22;58938;49.868;8.646;2022-09-09T07:21:00;20.40;60.10
71208;DHT22;58938;49.868;8.646;2022-09-09T07:23:26;20.50;60.00
71208;DHT22;58938;49.868;8.646;2022-09-09T07:25:52;20.50;60.10
71208;DHT22;58938;49.868;8.646;2022-09-09T07:28:21;20.50;60.10
71208;DHT22;58938;49.868;8.646;2022-09-09T07:30:58;20.50;60.10
71208;DHT22;58938;49.868;8.646;2022-09-09T07:33:24;20.50;60.10
71208;DHT22;58938;49.868;8.646;2022-09-09T07:35:51;20.50;60.20
71208;DHT22;58938;49.868;8.646;2022-09-09T07:38:17;20.50;60.10
71208;DHT22;58938;49.868;8.646;2022-09-09T07:40:43;20.50;60.20
71208;DHT22;58938;49.868;8.646;2022-09-09T07:43:09;20.60;60.30
71208;DHT22;58938;49.868;8.646;2022-09-09T07:45:35;20.60;60.30
71208;DHT22;58938;49.868;8.646;2022-09-09T07:48:01;20.50;60.30
71208;DHT22;58938;49.868;8.646;2022-09-09T07:50:27;20.60;60.30
71208;DHT22;58938;49.868;8.646;2022-09-09T07:52:53;20.60;60.30
71208;DHT22;58938;49.868;8.646;2022-09-09T07:55:19;20.60;60.30
71208;DHT22;58938;49.868;8.646;2022-09-09T07:57:45;20.60;60.40
71208;DHT22;58938;49.868;8.646;2022-09-09T08:00:11;20.60;60.30
71208;DHT22;58938;49.868;8.646;2022-09-09T08:02:37;20.60;60.30
71208;DHT22;58938;49.868;8.646;2022-09-09T08:05:02;20.60;60.30
71208;DHT22;58938;49.868;8.646;2022-09-09T08:07:28;20.60;60.30
71208;DHT22;58938;49.868;8.646;2022-09-09T08:09:54;20.70;60.40
71208;DHT22;58938;49.868;8.646;2022-09-09T08:12:21;20.70;60.40
71208;DHT22;58938;49.868;8.646;2022-09-09T08:14:46;20.70;60.30
71208;DHT22;58938;49.868;8.646;2022-09-09T08:17:12;20.60;60.40
71208;DHT22;58938;49.868;8.646;2022-09-09T08:19:38;20.70;60.40
71208;DHT22;58938;49.868;8.646;2022-09-09T08:22:03;20.70;60.40
71208;DHT22;58938;49.868;8.646;2022-09-09T08:24:29;20.70;60.30
71208;DHT22;58938;49.868;8.646;2022-09-09T08:26:57;20.70;60.30
71208;DHT22;58938;49.868;8.646;2022-09-09T08:29:23;20.70;60.30
71208;DHT22;58938;49.868;8.646;2022-09-09T08:31:51;20.80;60.20
71208;DHT22;58938;49.868;8.646;2022-09-09T08:34:20;20.80;60.20
71208;DHT22;58938;49.868;8.646;2022-09-09T08:36:46;20.80;60.20
71208;DHT22;58938;49.868;8.646;2022-09-09T08:39:14;20.80;60.10
71208;DHT22;58938;49.868;8.646;2022-09-09T08:47:56;20.80;59.10
71208;DHT22;58938;49.868;8.646;2022-09-09T08:50:28;20.80;59.60
71208;DHT22;58938;49.868;8.646;2022-09-09T08:53:16;20.80;59.30
71208;DHT22;58938;49.868;8.646;2022-09-09T08:55:47;20.80;59.30
71208;DHT22;58938;49.868;8.646;2022-09-09T08:58:19;20.80;59.20
71208;DHT22;58938;49.868;8.646;2022-09-09T09:06:09;20.80;59.20
71208;DHT22;58938;49.868;8.646;2022-09-09T09:08:48;20.90;59.60
71208;DHT22;58938;49.868;8.646;2022-09-09T09:11:20;20.80;59.90
71208;DHT22;58938;49.868;8.646;2022-09-09T09:16:29;20.80;61.20
71208;DHT22;58938;49.868;8.646;2022-09-09T09:18:58;20.80;62.10
71208;DHT22;58938;49.868;8.646;2022-09-09T09:24:00;20.80;63.10
71208;DHT22;58938;49.868;8.646;2022-09-09T09:26:35;20.70;63.40
71208;DHT22;58938;49.868;8.646;2022-09-09T09:29:13;20.80;63.50
71208;DHT22;58938;49.868;8.646;2022-09-09T09:31:51;20.80;63.90
71208;DHT22;58938;49.868;8.646;2022-09-09T09:34:17;20.80;63.70
71208;DHT22;58938;49.868;8.646;2022-09-09T09:36:59;20.80;63.30
71208;DHT22;58938;49.868;8.646;2022-09-09T09:39:35;20.90;63.00
71208;DHT22;58938;49.868;8.646;2022-09-09T09:42:11;20.90;62.80
71208;DHT22;58938;49.868;8.646;2022-09-09T09:44:39;20.90;62.30
71208;DHT22;58938;49.868;8.646;2022-09-09T09:49:38;20.90;62.10
71208;DHT22;58938;49.868;8.646;2022-09-09T09:52:06;20.90;61.90
71208;DHT22;58938;49.868;8.646;2022-09-09T09:54:41;21.00;61.80
71208;DHT22;58938;49.868;8.646;2022-09-09T09:57:15;21.00;61.70
71208;DHT22;58938;49.868;8.646;2022-09-09T09:59:41;21.00;61.30
71208;DHT22;58938;49.868;8.646;2022-09-09T10:02:21;21.00;61.10
71208;DHT22;58938;49.868;8.646;2022-09-09T10:05:13;21.10;60.50
71208;DHT22;58938;49.868;8.646;2022-09-09T10:07:38;21.10;60.40
71208;DHT22;58938;49.868;8.646;2022-09-09T10:10:05;21.10;60.30
71208;DHT22;58938;49.868;8.646;2022-09-09T10:15:57;21.20;60.10
71208;DHT22;58938;49.868;8.646;2022-09-09T10:18:41;21.20;59.60
71208;DHT22;58938;49.868;8.646;2022-09-09T10:24:27;21.20;58.70
71208;DHT22;58938;49.868;8.646;2022-09-09T10:32:55;21.30;58.40
71208;DHT22;58938;49.868;8.646;2022-09-09T10:38:15;21.20;58.80
71208;DHT22;58938;49.868;8.646;2022-09-09T10:43:39;21.00;60.80
71208;DHT22;58938;49.868;8.646;2022-09-09T10:46:26;20.90;62.60
71208;DHT22;58938;49.868;8.646;2022-09-09T10:51:50;20.60;65.60
71208;DHT22;58938;49.868;8.646;2022-09-09T10:59:50;20.40;66.70
71208;DHT22;58938;49.868;8.646;2022-09-09T11:02:30;20.40;67.30
71208;DHT22;58938;49.868;8.646;2022-09-09T11:07:42;20.40;67.80
71208;DHT22;58938;49.868;8.646;2022-09-09T11:10:43;20.30;68.00
71208;DHT22;58938;49.868;8.646;2022-09-09T11:13:33;20.30;68.20
71208;DHT22;58938;49.868;8.646;2022-09-09T11:18:40;20.30;68.70
71208;DHT22;58938;49.868;8.646;2022-09-09T11:21:32;20.30;68.70
71208;DHT22;58938;49.868;8.646;2022-09-09T11:24:01;20.30;68.80
71208;DHT22;58938;49.868;8.646;2022-09-09T11:27:07;20.30;69.00
71208;DHT22;58938;49.868;8.646;2022-09-09T11:30:05;20.30;69.30
71208;DHT22;58938;49.868;8.646;2022-09-09T11:38:21;20.40;69.70
71208;DHT22;58938;49.868;8.646;2022-09-09T11:40:58;20.40;69.80
71208;DHT22;58938;49.868;8.646;2022-09-09T11:43:29;20.40;69.60
71208;DHT22;58938;49.868;8.646;2022-09-09T11:45:58;20.40;69.80
71208;DHT22;58938;49.868;8.646;2022-09-09T11:48:36;20.40;70.00
71208;DHT22;58938;49.868;8.646;2022-09-09T11:51:06;20.40;70.00
71208;DHT22;58938;49.868;8.646;2022-09-09T11:53:34;20.40;69.70
71208;DHT22;58938;49.868;8.646;2022-09-09T11:56:09;20.40;70.00
71208;DHT22;58938;49.868;8.646;2022-09-09T11:58:41;20.40;70.10
71208;DHT22;58938;49.868;8.646;2022-09-09T12:04:13;20.50;70.10
71208;DHT22;58938;49.868;8.646;2022-09-09T12:06:45;20.50;70.10
71208;DHT22;58938;49.868;8.646;2022-09-09T12:09:32;20.50;70.10
71208;DHT22;58938;49.868;8.646;2022-09-09T12:14:44;20.60;69.80
71208;DHT22;58938;49.868;8.646;2022-09-09T12:17:20;20.60;69.50
71208;DHT22;58938;49.868;8.646;2022-09-09T12:19:48;20.60;69.70
71208;DHT22;58938;49.868;8.646;2022-09-09T12:30:41;20.70;68.60
71208;DHT22;58938;49.868;8.646;2022-09-09T12:33:16;20.70;68.20
71208;DHT22;58938;49.868;8.646;2022-09-09T12:35:44;20.70;67.70
71208;DHT22;58938;49.868;8.646;2022-09-09T12:38:16;20.70;67.80
71208;DHT22;58938;49.868;8.646;2022-09-09T12:40:54;20.70;67.60
71208;DHT22;58938;49.868;8.646;2022-09-09T12:43:22;20.70;67.40
71208;DHT22;58938;49.868;8.646;2022-09-09T12:45:49;20.80;66.30
71208;DHT22;58938;49.868;8.646;2022-09-09T12:48:26;20.80;64.40
71208;DHT22;58938;49.868;8.646;2022-09-09T12:50:53;20.80;64.10
71208;DHT22;58938;49.868;8.646;2022-09-09T12:53:23;20.80;60.50
71208;DHT22;58938;49.868;8.646;2022-09-09T12:55:58;20.80;61.10
71208;DHT22;58938;49.868;8.646;2022-09-09T12:58:25;20.90;61.00
71208;DHT22;58938;49.868;8.646;2022-09-09T13:00:55;20.90;60.90
71208;DHT22;58938;49.868;8.646;2022-09-09T13:03:24;20.90;59.90
71208;DHT22;58938;49.868;8.646;2022-09-09T13:05:51;20.90;58.50
71208;DHT22;58938;49.868;8.646;2022-09-09T13:08:18;20.90;58.20
71208;DHT22;58938;49.868;8.646;2022-09-09T13:11:00;21.00;56.70
71208;DHT22;58938;49.868;8.646;2022-09-09T13:13:34;21.00;57.20
71208;DHT22;58938;49.868;8.646;2022-09-09T13:16:01;21.00;55.70
71208;DHT22;58938;49.868;8.646;2022-09-09T13:18:30;21.00;56.30
71208;DHT22;58938;49.868;8.646;2022-09-09T13:20:57;21.00;56.30
71208;DHT22;58938;49.868;8.646;2022-09-09T13:23:34;21.00;56.50
71208;DHT22;58938;49.868;8.646;2022-09-09T13:26:03;21.00;56.80
71208;DHT22;58938;49.868;8.646;2022-09-09T13:28:31;21.00;56.10
71208;DHT22;58938;49.868;8.646;2022-09-09T13:30:58;20.90;56.20
71208;DHT22;58938;49.868;8.646;2022-09-09T13:33:33;21.00;56.60
71208;DHT22;58938;49.868;8.646;2022-09-09T13:36:02;21.00;56.40
71208;DHT22;58938;49.868;8.646;2022-09-09T13:38:38;21.00;56.40
71208;DHT22;58938;49.868;8.646;2022-09-09T13:41:05;20.90;56.40
71208;DHT22;58938;49.868;8.646;2022-09-09T13:43:43;20.90;56.20
71208;DHT22;58938;49.868;8.646;2022-09-09T13:49:17;20.90;55.30
71208;DHT22;58938;49.868;8.646;2022-09-09T13:51:49;20.90;55.80
71208;DHT22;58938;49.868;8.646;2022-09-09T13:54:18;20.90;55.90
71208;DHT22;58938;49.868;8.646;2022-09-09T13:56:44;20.90;56.30
71208;DHT22;58938;49.868;8.646;2022-09-09T13:59:19;20.90;56.70
71208;DHT22;58938;49.868;8.646;2022-09-09T14:01:49;20.90;57.00
71208;DHT22;58938;49.868;8.646;2022-09-09T14:04:18;20.90;57.20
71208;DHT22;58938;49.868;8.646;2022-09-09T14:06:47;20.90;57.30
71208;DHT22;58938;49.868;8.646;2022-09-09T14:09:14;20.90;57.40
71208;DHT22;58938;49.868;8.646;2022-09-09T14:11:41;20.90;57.70
71208;DHT22;58938;49.868;8.646;2022-09-09T14:14:07;20.90;57.90
71208;DHT22;58938;49.868;8.646;2022-09-09T14:16:33;20.90;57.90
71208;DHT22;58938;49.868;8.646;2022-09-09T14:18:58;21.00;58.10
71208;DHT22;58938;49.868;8.646;2022-09-09T14:21:27;21.00;58.20
71208;DHT22;58938;49.868;8.646;2022-09-09T14:23:53;21.00;58.40
71208;DHT22;58938;49.868;8.646;2022-09-09T14:26:22;21.00;58.50
71208;DHT22;58938;49.868;8.646;2022-09-09T14:28:48;21.00;58.60
71208;DHT22;58938;49.868;8.646;2022-09-09T14:31:15;21.00;58.70
71208;DHT22;58938;49.868;8.646;2022-09-09T14:33:43;21.10;58.80
71208;DHT22;58938;49.868;8.646;2022-09-09T14:36:09;21.10;58.90
71208;DHT22;58938;49.868;8.646;2022-09-09T14:38:36;21.10;58.90
71208;DHT22;58938;49.868;8.646;2022-09-09T14:41:16;21.10;58.80
71208;DHT22;58938;49.868;8.646;2022-09-09T14:43:43;21.10;58.80
71208;DHT22;58938;49.868;8.646;2022-09-09T14:46:11;21.10;58.80
71208;DHT22;58938;49.868;8.646;2022-09-09T14:48:37;21.20;58.70
71208;DHT22;58938;49.868;8.646;2022-09-09T14:51:05;21.20;58.60
71208;DHT22;58938;49.868;8.646;2022-09-09T14:53:31;21.20;58.60
71208;DHT22;58938;49.868;8.646;2022-09-09T14:56:04;21.20;58.50
71208;DHT22;58938;49.868;8.646;2022-09-09T14:58:30;21.20;58.40
71208;DHT22;58938;49.868;8.646;2022-09-09T15:01:02;21.30;58.30
71208;DHT22;58938;49.868;8.646;2022-09-09T15:03:28;21.30;58.00
71208;DHT22;58938;49.868;8.646;2022-09-09T15:05:54;21.30;57.90
71208;DHT22;58938;49.868;8.646;2022-09-09T15:08:19;21.30;57.70
71208;DHT22;58938;49.868;8.646;2022-09-09T15:10:45;21.30;57.60
71208;DHT22;58938;49.868;8.646;2022-09-09T15:13:14;21.30;57.40
71208;DHT22;58938;49.868;8.646;2022-09-09T15:15:42;21.30;57.10
71208;DHT22;58938;49.868;8.646;2022-09-09T15:18:11;21.30;57.30
71208;DHT22;58938;49.868;8.646;2022-09-09T15:20:38;21.40;57.30
71208;DHT22;58938;49.868;8.646;2022-09-09T15:23:03;21.30;57.10
71208;DHT22;58938;49.868;8.646;2022-09-09T15:25:30;21.40;57.20
71208;DHT22;58938;49.868;8.646;2022-09-09T15:27:55;21.40;57.20
71208;DHT22;58938;49.868;8.646;2022-09-09T15:30:27;21.40;57.20
71208;DHT22;58938;49.868;8.646;2022-09-09T15:32:52;21.40;57.30
71208;DHT22;58938;49.868;8.646;2022-09-09T15:35:18;21.40;57.30
71208;DHT22;58938;49.868;8.646;2022-09-09T15:37:44;21.40;57.50
71208;DHT22;58938;49.868;8.646;2022-09-09T15:40:10;21.40;57.60
71208;DHT22;58938;49.868;8.646;2022-09-09T15:42:36;21.40;57.60
71208;DHT22;58938;49.868;8.646;2022-09-09T15:45:01;21.40;57.70
71208;DHT22;58938;49.868;8.646;2022-09-09T15:47:27;21.40;57.80
71208;DHT22;58938;49.868;8.646;2022-09-09T15:49:52;21.40;57.90
71208;DHT22;58938;49.868;8.646;2022-09-09T15:52:18;21.50;57.90
71208;DHT22;58938;49.868;8.646;2022-09-09T15:54:43;21.50;57.90
71208;DHT22;58938;49.868;8.646;2022-09-09T15:57:12;21.50;58.00
71208;DHT22;58938;49.868;8.646;2022-09-09T15:59:38;21.50;58.00
71208;DHT22;58938;49.868;8.646;2022-09-09T16:02:04;21.60;57.90
71208;DHT22;58938;49.868;8.646;2022-09-09T16:04:30;21.60;57.90
71208;DHT22;58938;49.868;8.646;2022-09-09T16:06:59;21.60;57.90
71208;DHT22;58938;49.868;8.646;2022-09-09T16:09:27;21.60;57.90
71208;DHT22;58938;49.868;8.646;2022-09-09T16:11:56;21.60;57.80
71208;DHT22;58938;49.868;8.646;2022-09-09T16:14:23;21.60;57.80
71208;DHT22;58938;49.868;8.646;2022-09-09T16:16:50;21.60;57.70
71208;DHT22;58938;49.868;8.646;2022-09-09T16:19:16;21.60;57.40
71208;DHT22;58938;49.868;8.646;2022-09-09T16:21:44;21.60;57.20
71208;DHT22;58938;49.868;8.646;2022-09-09T16:24:12;21.60;57.00
71208;DHT22;58938;49.868;8.646;2022-09-09T16:26:41;21.60;56.70
71208;DHT22;58938;49.868;8.646;2022-09-09T16:29:10;21.60;56.30
71208;DHT22;58938;49.868;8.646;2022-09-09T16:31:36;21.60;55.90
71208;DHT22;58938;49.868;8.646;2022-09-09T16:34:14;21.50;55.70
71208;DHT22;58938;49.868;8.646;2022-09-09T16:36:41;21.50;55.70
71208;DHT22;58938;49.868;8.646;2022-09-09T16:39:17;21.50;55.50
71208;DHT22;58938;49.868;8.646;2022-09-09T16:41:45;21.50;55.40
71208;DHT22;58938;49.868;8.646;2022-09-09T16:44:13;21.50;55.50
71208;DHT22;58938;49.868;8.646;2022-09-09T16:46:41;21.50;55.40
71208;DHT22;58938;49.868;8.646;2022-09-09T16:49:09;21.50;55.40
71208;DHT22;58938;49.868;8.646;2022-09-09T16:51:41;21.50;55.20
71208;DHT22;58938;49.868;8.646;2022-09-09T16:54:08;21.50;55.10
71208;DHT22;58938;49.868;8.646;2022-09-09T16:56:36;21.50;54.90
71208;DHT22;58938;49.868;8.646;2022-09-09T16:59:05;21.40;54.90
71208;DHT22;58938;49.868;8.646;2022-09-09T17:01:34;21.40;54.80
71208;DHT22;58938;49.868;8.646;2022-09-09T17:04:03;21.40;55.00
71208;DHT22;58938;49.868;8.646;2022-09-09T17:06:31;21.30;55.10
71208;DHT22;58938;49.868;8.646;2022-09-09T17:08:59;21.30;55.00
71208;DHT22;58938;49.868;8.646;2022-09-09T17:11:26;21.30;55.10
71208;DHT22;58938;49.868;8.646;2022-09-09T17:13:53;21.30;55.10
71208;DHT22;58938;49.868;8.646;2022-09-09T17:16:22;21.20;55.20
71208;DHT22;58938;49.868;8.646;2022-09-09T17:18:51;21.20;55.40
71208;DHT22;58938;49.868;8.646;2022-09-09T17:21:19;21.20;55.50
71208;DHT22;58938;49.868;8.646;2022-09-09T17:23:46;21.20;55.60
71208;DHT22;58938;49.868;8.646;2022-09-09T17:26:14;21.20;55.70
71208;DHT22;58938;49.868;8.646;2022-09-09T17:28:42;21.20;55.80